sensor_id;sensor_type;location;lat;lon;timestamp;pressure;altitude;pressure_sealevel;temperature;humidity
59029;BME280;45919;51.420;5.454;2022-08-19T00:00:45;101194.81;;;19.91;83.61
59029;BME280;45919;51.420;5.454;2022-08-19T00:01:49;101188.69;;;19.86;83.71
59029;BME280;45919;51.420;5.454;2022-08-19T00:02:51;101199.25;;;19.89;83.32
59029;BME280;45919;51.420;5.454;2022-08-19T00:03:52;101194.00;;;19.86;83.34
59029;BME280;45919;51.420;5.454;2022-08-19T00:04:54;101198.47;;;19.83;83.15
59029;BME280;45919;51.420;5.454;2022-08-19T00:05:56;101194.97;;;19.81;83.43
59029;BME280;45919;51.420;5.454;2022-08-19T00:06:58;101196.75;;;19.81;83.80
59029;BME280;45919;51.420;5.454;2022-08-19T00:08:00;101202.06;;;19.79;83.91
59029;BME280;45919;51.420;5.454;2022-08-19T00:09:05;101197.63;;;19.81;83.94
59029;BME280;45919;51.420;5.454;2022-08-19T00:10:08;101199.50;;;19.76;83.76
59029;BME280;45919;51.420;5.454;2022-08-19T00:11:11;101198.59;;;19.76;84.37
59029;BME280;45919;51.420;5.454;2022-08-19T00:12:12;101203.97;;;19.73;84.37
59029;BME280;45919;51.420;5.454;2022-08-19T00:13:14;101205.81;;;19.69;84.22
59029;BME280;45919;51.420;5.454;2022-08-19T00:14:17;101207.53;;;19.70;84.62
59029;BME280;45919;51.420;5.454;2022-08-19T00:15:21;101209.28;;;19.71;84.36
59029;BME280;45919;51.420;5.454;2022-08-19T00:16:24;101203.09;;;19.72;85.18
59029;BME280;45919;51.420;5.454;2022-08-19T00:17:26;101193.41;;;19.69;84.95
59029;BME280;45919;51.420;5.454;2022-08-19T00:18:28;101205.81;;;19.69;85.56
59029;BME280;45919;51.420;5.454;2022-08-19T00:19:29;101202.31;;;19.67;85.61
59029;BME280;45919;51.420;5.454;2022-08-19T00:20:31;101175.19;;;19.49;86.09
59029;BME280;45919;51.420;5.454;2022-08-19T00:21:33;101184.84;;;19.53;86.21
59029;BME280;45919;51.420;5.454;2022-08-19T00:22:39;101205.81;;;19.67;86.20
59029;BME280;45919;51.420;5.454;2022-08-19T00:23:42;101189.25;;;19.53;86.35
59029;BME280;45919;51.420;5.454;2022-08-19T00:24:45;101217.28;;;19.68;86.95
59029;BME280;45919;51.420;5.454;2022-08-19T00:25:46;101211.19;;;19.63;86.70
59029;BME280;45919;51.420;5.454;2022-08-19T00:26:48;101211.16;;;19.64;86.96
59029;BME280;45919;51.420;5.454;2022-08-19T00:27:49;101216.53;;;19.61;87.16
59029;BME280;45919;51.420;5.454;2022-08-19T00:28:51;101213.00;;;19.60;87.27
59029;BME280;45919;51.420;5.454;2022-08-19T00:29:53;101215.66;;;19.59;87.23
59029;BME280;45919;51.420;5.454;2022-08-19T00:30:54;101219.22;;;19.58;87.59
59029;BME280;45919;51.420;5.454;2022-08-19T00:31:57;101216.63;;;19.55;87.41
59029;BME280;45919;51.420;5.454;2022-08-19T00:33:00;101218.41;;;19.54;87.48
59029;BME280;45919;51.420;5.454;2022-08-19T00:34:02;101216.66;;;19.52;87.40
59029;BME280;45919;51.420;5.454;2022-08-19T00:35:04;101217.59;;;19.51;87.57
59029;BME280;45919;51.420;5.454;2022-08-19T00:36:07;101210.59;;;19.45;87.56
59029;BME280;45919;51.420;5.454;2022-08-19T00:37:09;101205.38;;;19.40;87.76
59029;BME280;45919;51.420;5.454;2022-08-19T00:38:11;101211.41;;;19.50;87.97
59029;BME280;45919;51.420;5.454;2022-08-19T00:39:14;101213.09;;;19.53;87.62
59029;BME280;45919;51.420;5.454;2022-08-19T00:40:17;101185.97;;;19.38;87.54
59029;BME280;45919;51.420;5.454;2022-08-19T00:41:22;101184.31;;;19.31;87.37
59029;BME280;45919;51.420;5.454;2022-08-19T00:42:24;101204.34;;;19.51;87.53
59029;BME280;45919;51.420;5.454;2022-08-19T00:43:29;101208.72;;;19.52;87.58
59029;BME280;45919;51.420;5.454;2022-08-19T00:44:31;101209.63;;;19.51;87.51
59029;BME280;45919;51.420;5.454;2022-08-19T00:45:33;101207.00;;;19.51;87.60
59029;BME280;45919;51.420;5.454;2022-08-19T00:46:39;101210.47;;;19.53;87.92
59029;BME280;45919;51.420;5.454;2022-08-19T00:47:41;101173.78;;;19.28;87.74
59029;BME280;45919;51.420;5.454;2022-08-19T00:48:42;101215.81;;;19.50;87.96
59029;BME280;45919;51.420;5.454;2022-08-19T00:49:50;101213.13;;;19.51;88.25
59029;BME280;45919;51.420;5.454;2022-08-19T00:50:53;101215.03;;;19.44;88.35
59029;BME280;45919;51.420;5.454;2022-08-19T00:52:07;101218.44;;;19.51;88.46
59029;BME280;45919;51.420;5.454;2022-08-19T00:53:12;101218.59;;;19.43;88.53
59029;BME280;45919;51.420;5.454;2022-08-19T00:54:16;101215.13;;;19.36;88.98
59029;BME280;45919;51.420;5.454;2022-08-19T00:55:22;101193.34;;;19.19;89.24
59029;BME280;45919;51.420;5.454;2022-08-19T00:56:25;101218.72;;;19.34;88.84
59029;BME280;45919;51.420;5.454;2022-08-19T00:57:33;101218.69;;;19.35;89.40
59029;BME280;45919;51.420;5.454;2022-08-19T00:58:36;101195.16;;;19.15;89.36
59029;BME280;45919;51.420;5.454;2022-08-19T00:59:39;101189.00;;;19.11;89.45
59029;BME280;45919;51.420;5.454;2022-08-19T01:00:41;101208.31;;;19.21;89.49
59029;BME280;45919;51.420;5.454;2022-08-19T01:01:44;101211.81;;;19.25;89.69
59029;BME280;45919;51.420;5.454;2022-08-19T01:02:47;101212.72;;;19.22;89.80
59029;BME280;45919;51.420;5.454;2022-08-19T01:03:49;101218.03;;;19.21;90.02
59029;BME280;45919;51.420;5.454;2022-08-19T01:04:51;101197.03;;;19.05;90.31
59029;BME280;45919;51.420;5.454;2022-08-19T01:05:54;101215.44;;;19.16;90.31
59029;BME280;45919;51.420;5.454;2022-08-19T01:06:57;101211.94;;;19.16;90.53
59029;BME280;45919;51.420;5.454;2022-08-19T01:08:01;101176.94;;;18.92;90.39
59029;BME280;45919;51.420;5.454;2022-08-19T01:09:04;101211.09;;;19.14;90.44
59029;BME280;45919;51.420;5.454;2022-08-19T01:10:10;101211.06;;;19.15;90.79
59029;BME280;45919;51.420;5.454;2022-08-19T01:11:12;101220.78;;;19.11;90.37
59029;BME280;45919;51.420;5.454;2022-08-19T01:12:14;101204.94;;;19.08;90.57
59029;BME280;45919;51.420;5.454;2022-08-19T01:13:19;101211.09;;;19.09;91.03
59029;BME280;45919;51.420;5.454;2022-08-19T01:14:22;101210.25;;;19.05;90.94
59029;BME280;45919;51.420;5.454;2022-08-19T01:15:27;101214.66;;;19.08;91.11
59029;BME280;45919;51.420;5.454;2022-08-19T01:16:32;101214.69;;;19.06;90.82
59029;BME280;45919;51.420;5.454;2022-08-19T01:17:36;101209.44;;;19.03;91.29
59029;BME280;45919;51.420;5.454;2022-08-19T01:18:41;101202.34;;;19.04;91.45
59029;BME280;45919;51.420;5.454;2022-08-19T01:19:45;101198.84;;;19.02;91.25
59029;BME280;45919;51.420;5.454;2022-08-19T01:20:48;101200.66;;;18.99;91.34
59029;BME280;45919;51.420;5.454;2022-08-19T01:22:04;101198.78;;;19.08;91.53
59029;BME280;45919;51.420;5.454;2022-08-19T01:23:08;101191.91;;;18.96;91.25
59029;BME280;45919;51.420;5.454;2022-08-19T01:24:09;101189.31;;;18.90;91.47
59029;BME280;45919;51.420;5.454;2022-08-19T01:25:14;101199.81;;;18.97;91.59
59029;BME280;45919;51.420;5.454;2022-08-19T01:26:21;101198.91;;;18.98;91.61
59029;BME280;45919;51.420;5.454;2022-08-19T01:27:23;101198.03;;;18.96;91.53
59029;BME280;45919;51.420;5.454;2022-08-19T01:28:26;101202.47;;;18.97;91.43
59029;BME280;45919;51.420;5.454;2022-08-19T01:29:28;101196.34;;;18.94;91.58
59029;BME280;45919;51.420;5.454;2022-08-19T01:30:34;101201.59;;;18.95;91.58
59029;BME280;45919;51.420;5.454;2022-08-19T01:31:36;101206.91;;;18.94;91.70
59029;BME280;45919;51.420;5.454;2022-08-19T01:32:38;101205.16;;;18.93;91.60
59029;BME280;45919;51.420;5.454;2022-08-19T01:33:39;101201.66;;;18.92;91.82
59029;BME280;45919;51.420;5.454;2022-08-19T01:34:41;101159.72;;;18.62;91.61
59029;BME280;45919;51.420;5.454;2022-08-19T01:35:43;101206.94;;;18.92;91.55
59029;BME280;45919;51.420;5.454;2022-08-19T01:36:46;101213.06;;;18.94;92.14
59029;BME280;45919;51.420;5.454;2022-08-19T01:37:54;101205.09;;;18.97;91.74
59029;BME280;45919;51.420;5.454;2022-08-19T01:38:56;101212.22;;;18.91;91.77
59029;BME280;45919;51.420;5.454;2022-08-19T01:39:59;101210.47;;;18.91;91.72
59029;BME280;45919;51.420;5.454;2022-08-19T01:41:01;101196.47;;;18.84;91.82
59029;BME280;45919;51.420;5.454;2022-08-19T01:42:03;101213.16;;;18.90;91.78
59029;BME280;45919;51.420;5.454;2022-08-19T01:43:05;101210.47;;;18.91;91.70
59029;BME280;45919;51.420;5.454;2022-08-19T01:44:09;101210.47;;;18.91;91.93
59029;BME280;45919;51.420;5.454;2022-08-19T01:45:11;101205.22;;;18.88;91.79
59029;BME280;45919;51.420;5.454;2022-08-19T01:46:13;101209.59;;;18.91;91.91
59029;BME280;45919;51.420;5.454;2022-08-19T01:47:14;101210.50;;;18.90;91.89
59029;BME280;45919;51.420;5.454;2022-08-19T01:48:17;101204.28;;;18.91;91.77
59029;BME280;45919;51.420;5.454;2022-08-19T01:49:21;101214.00;;;18.92;91.94
59029;BME280;45919;51.420;5.454;2022-08-19T01:50:24;101208.72;;;18.90;91.61
59029;BME280;45919;51.420;5.454;2022-08-19T01:51:26;101202.56;;;18.90;91.64
59029;BME280;45919;51.420;5.454;2022-08-19T01:52:28;101209.59;;;18.91;91.44
59029;BME280;45919;51.420;5.454;2022-08-19T01:53:30;101212.25;;;18.89;91.57
59029;BME280;45919;51.420;5.454;2022-08-19T01:54:32;101216.69;;;18.90;91.46
59029;BME280;45919;51.420;5.454;2022-08-19T01:55:38;101212.25;;;18.92;91.69
59029;BME280;45919;51.420;5.454;2022-08-19T01:56:41;101214.03;;;18.87;91.48
59029;BME280;45919;51.420;5.454;2022-08-19T01:57:45;101213.16;;;18.90;91.60
59029;BME280;45919;51.420;5.454;2022-08-19T01:58:54;101208.75;;;18.87;91.77
59029;BME280;45919;51.420;5.454;2022-08-19T01:59:57;101214.06;;;18.85;91.48
59029;BME280;45919;51.420;5.454;2022-08-19T02:00:58;101215.88;;;18.85;91.44
59029;BME280;45919;51.420;5.454;2022-08-19T02:02:00;101218.50;;;18.85;91.55
59029;BME280;45919;51.420;5.454;2022-08-19T02:03:02;101219.38;;;18.84;91.26
59029;BME280;45919;51.420;5.454;2022-08-19T02:04:04;101217.59;;;18.86;91.44
59029;BME280;45919;51.420;5.454;2022-08-19T02:05:07;101217.63;;;18.84;91.49
59029;BME280;45919;51.420;5.454;2022-08-19T02:06:09;101220.31;;;18.81;91.15
59029;BME280;45919;51.420;5.454;2022-08-19T02:07:11;101226.47;;;18.82;90.96
59029;BME280;45919;51.420;5.454;2022-08-19T02:08:13;101225.59;;;18.80;90.96
59029;BME280;45919;51.420;5.454;2022-08-19T02:09:14;101232.66;;;18.82;91.16
59029;BME280;45919;51.420;5.454;2022-08-19T02:10:20;101234.38;;;18.83;90.80
59029;BME280;45919;51.420;5.454;2022-08-19T02:11:26;101230.88;;;18.83;90.64
59029;BME280;45919;51.420;5.454;2022-08-19T02:12:28;101226.50;;;18.80;90.57
59029;BME280;45919;51.420;5.454;2022-08-19T02:13:29;101216.91;;;18.71;90.82
59029;BME280;45919;51.420;5.454;2022-08-19T02:14:33;101231.78;;;18.80;90.59
59029;BME280;45919;51.420;5.454;2022-08-19T02:15:35;101231.84;;;18.77;90.47
59029;BME280;45919;51.420;5.454;2022-08-19T02:16:37;101230.97;;;18.75;90.15
59029;BME280;45919;51.420;5.454;2022-08-19T02:17:39;101227.44;;;18.78;90.11
59029;BME280;45919;51.420;5.454;2022-08-19T02:18:41;101233.63;;;18.75;89.61
59029;BME280;45919;51.420;5.454;2022-08-19T02:19:42;101230.09;;;18.74;89.82
59029;BME280;45919;51.420;5.454;2022-08-19T02:20:44;101235.41;;;18.73;89.73
59029;BME280;45919;51.420;5.454;2022-08-19T02:21:48;101238.94;;;18.73;90.05
59029;BME280;45919;51.420;5.454;2022-08-19T02:22:49;101234.53;;;18.72;90.07
59029;BME280;45919;51.420;5.454;2022-08-19T02:23:51;101231.06;;;18.70;89.97
59029;BME280;45919;51.420;5.454;2022-08-19T02:24:54;101234.59;;;18.68;90.18
59029;BME280;45919;51.420;5.454;2022-08-19T02:25:56;101233.66;;;18.72;89.49
59029;BME280;45919;51.420;5.454;2022-08-19T02:26:57;101227.53;;;18.67;90.32
59029;BME280;45919;51.420;5.454;2022-08-19T02:28:00;101232.81;;;18.67;89.89
59029;BME280;45919;51.420;5.454;2022-08-19T02:29:02;101236.34;;;18.70;90.12
59029;BME280;45919;51.420;5.454;2022-08-19T02:30:12;101238.03;;;18.74;90.21
59029;BME280;45919;51.420;5.454;2022-08-19T02:31:15;101240.53;;;18.88;90.19
59029;BME280;45919;51.420;5.454;2022-08-19T02:32:18;101241.63;;;18.69;89.67
59029;BME280;45919;51.420;5.454;2022-08-19T02:33:22;101235.47;;;18.67;89.38
59029;BME280;45919;51.420;5.454;2022-08-19T02:34:24;101201.34;;;18.46;89.51
59029;BME280;45919;51.420;5.454;2022-08-19T02:35:26;101236.41;;;18.64;89.00
59029;BME280;45919;51.420;5.454;2022-08-19T02:36:28;101238.16;;;18.63;88.87
59029;BME280;45919;51.420;5.454;2022-08-19T02:37:29;101239.06;;;18.62;88.72
59029;BME280;45919;51.420;5.454;2022-08-19T02:39:07;101234.69;;;18.58;88.78
59029;BME280;45919;51.420;5.454;2022-08-19T02:40:09;101239.09;;;18.59;88.89
59029;BME280;45919;51.420;5.454;2022-08-19T02:41:14;101240.00;;;18.58;88.84
59029;BME280;45919;51.420;5.454;2022-08-19T02:42:16;101235.59;;;18.56;88.88
59029;BME280;45919;51.420;5.454;2022-08-19T02:43:18;101240.03;;;18.55;88.83
59029;BME280;45919;51.420;5.454;2022-08-19T02:44:21;101240.91;;;18.54;88.84
59029;BME280;45919;51.420;5.454;2022-08-19T02:45:23;101248.00;;;18.54;89.07
59029;BME280;45919;51.420;5.454;2022-08-19T02:46:28;101248.00;;;18.54;88.87
59029;BME280;45919;51.420;5.454;2022-08-19T02:47:30;101248.00;;;18.52;88.89
59029;BME280;45919;51.420;5.454;2022-08-19T02:48:31;101225.22;;;18.40;88.89
59029;BME280;45919;51.420;5.454;2022-08-19T02:49:34;101241.88;;;18.47;89.14
59029;BME280;45919;51.420;5.454;2022-08-19T02:50:39;101244.50;;;18.51;89.26
59029;BME280;45919;51.420;5.454;2022-08-19T02:51:42;101241.88;;;18.47;89.33
59029;BME280;45919;51.420;5.454;2022-08-19T02:52:44;101248.97;;;18.45;89.30
59029;BME280;45919;51.420;5.454;2022-08-19T02:53:46;101243.69;;;18.43;89.23
59029;BME280;45919;51.420;5.454;2022-08-19T02:54:48;101244.63;;;18.40;89.13
59029;BME280;45919;51.420;5.454;2022-08-19T02:55:50;101242.81;;;18.41;89.42
59029;BME280;45919;51.420;5.454;2022-08-19T02:56:52;101231.50;;;18.31;89.06
59029;BME280;45919;51.420;5.454;2022-08-19T02:57:53;101239.34;;;18.39;89.15
59029;BME280;45919;51.420;5.454;2022-08-19T02:58:56;101236.69;;;18.37;89.47
59029;BME280;45919;51.420;5.454;2022-08-19T02:59:59;101235.84;;;18.37;89.39
59029;BME280;45919;51.420;5.454;2022-08-19T03:01:01;101241.13;;;18.37;89.45
59029;BME280;45919;51.420;5.454;2022-08-19T03:02:02;101235.84;;;18.37;89.28
59029;BME280;45919;51.420;5.454;2022-08-19T03:03:04;101241.16;;;18.35;89.33
59029;BME280;45919;51.420;5.454;2022-08-19T03:04:06;101240.25;;;18.36;89.43
59029;BME280;45919;51.420;5.454;2022-08-19T03:05:09;101236.72;;;18.36;89.13
59029;BME280;45919;51.420;5.454;2022-08-19T03:06:15;101234.03;;;18.40;89.40
59029;BME280;45919;51.420;5.454;2022-08-19T03:07:17;101199.91;;;18.14;89.04
59029;BME280;45919;51.420;5.454;2022-08-19T03:08:19;101223.63;;;18.25;89.19
59029;BME280;45919;51.420;5.454;2022-08-19T03:09:21;101224.47;;;18.28;89.28
59029;BME280;45919;51.420;5.454;2022-08-19T03:10:22;101236.78;;;18.31;89.61
59029;BME280;45919;51.420;5.454;2022-08-19T03:11:29;101235.91;;;18.29;89.63
59029;BME280;45919;51.420;5.454;2022-08-19T03:12:35;101245.56;;;18.33;89.73
59029;BME280;45919;51.420;5.454;2022-08-19T03:13:37;101241.22;;;18.29;89.68
59029;BME280;45919;51.420;5.454;2022-08-19T03:14:38;101246.50;;;18.27;89.79
59029;BME280;45919;51.420;5.454;2022-08-19T03:15:46;101250.03;;;18.30;90.14
59029;BME280;45919;51.420;5.454;2022-08-19T03:16:52;101246.50;;;18.29;90.07
59029;BME280;45919;51.420;5.454;2022-08-19T03:17:53;101244.75;;;18.25;89.96
59029;BME280;45919;51.420;5.454;2022-08-19T03:18:57;101235.13;;;18.21;89.96
59029;BME280;45919;51.420;5.454;2022-08-19T03:20:01;101242.13;;;18.25;89.92
59029;BME280;45919;51.420;5.454;2022-08-19T03:21:04;101243.91;;;18.24;90.11
59029;BME280;45919;51.420;5.454;2022-08-19T03:22:06;101240.38;;;18.24;89.79
59029;BME280;45919;51.420;5.454;2022-08-19T03:23:09;101213.22;;;18.06;89.91
59029;BME280;45919;51.420;5.454;2022-08-19T03:24:13;101243.91;;;18.24;89.95
59029;BME280;45919;51.420;5.454;2022-08-19T03:25:15;101235.09;;;18.24;89.97
59029;BME280;45919;51.420;5.454;2022-08-19T03:26:17;101239.53;;;18.20;90.06
59029;BME280;45919;51.420;5.454;2022-08-19T03:27:18;101235.13;;;18.22;89.92
59029;BME280;45919;51.420;5.454;2022-08-19T03:28:20;101241.28;;;18.21;90.09
59029;BME280;45919;51.420;5.454;2022-08-19T03:29:23;101240.41;;;18.19;90.20
59029;BME280;45919;51.420;5.454;2022-08-19T03:30:25;101250.13;;;18.20;90.17
59029;BME280;45919;51.420;5.454;2022-08-19T03:31:27;101250.13;;;18.19;90.24
59029;BME280;45919;51.420;5.454;2022-08-19T03:32:28;101234.31;;;18.09;90.26
59029;BME280;45919;51.420;5.454;2022-08-19T03:33:31;101247.50;;;18.19;90.38
59029;BME280;45919;51.420;5.454;2022-08-19T03:34:34;101210.69;;;17.95;90.37
59029;BME280;45919;51.420;5.454;2022-08-19T03:35:37;101246.63;;;18.16;90.36
59029;BME280;45919;51.420;5.454;2022-08-19T03:36:40;101238.72;;;18.15;90.40
59029;BME280;45919;51.420;5.454;2022-08-19T03:37:42;101235.16;;;18.16;90.38
59029;BME280;45919;51.420;5.454;2022-08-19T03:38:49;101240.44;;;18.21;90.67
59029;BME280;45919;51.420;5.454;2022-08-19T03:39:51;101227.25;;;18.13;90.83
59029;BME280;45919;51.420;5.454;2022-08-19T03:40:52;101236.03;;;18.12;91.18
59029;BME280;45919;51.420;5.454;2022-08-19T03:41:54;101227.28;;;18.07;91.43
59029;BME280;45919;51.420;5.454;2022-08-19T03:42:58;101231.66;;;18.11;91.45
59029;BME280;45919;51.420;5.454;2022-08-19T03:44:00;101229.94;;;18.10;91.48
59029;BME280;45919;51.420;5.454;2022-08-19T03:45:02;101226.41;;;18.08;91.47
59029;BME280;45919;51.420;5.454;2022-08-19T03:46:06;101232.56;;;18.10;91.66
59029;BME280;45919;51.420;5.454;2022-08-19T03:47:08;101229.03;;;18.09;91.49
59029;BME280;45919;51.420;5.454;2022-08-19T03:48:09;101232.56;;;18.10;91.77
59029;BME280;45919;51.420;5.454;2022-08-19T03:49:11;101222.84;;;18.10;91.46
59029;BME280;45919;51.420;5.454;2022-08-19T03:50:13;101230.78;;;18.10;91.46
59029;BME280;45919;51.420;5.454;2022-08-19T03:51:20;101227.25;;;18.14;91.52
59029;BME280;45919;51.420;5.454;2022-08-19T03:52:22;101228.13;;;18.12;91.59
59029;BME280;45919;51.420;5.454;2022-08-19T03:53:25;101226.38;;;18.11;91.66
59029;BME280;45919;51.420;5.454;2022-08-19T03:54:28;101229.03;;;18.11;91.40
59029;BME280;45919;51.420;5.454;2022-08-19T03:55:30;101229.03;;;18.11;91.73
59029;BME280;45919;51.420;5.454;2022-08-19T03:56:34;101236.94;;;18.12;91.83
59029;BME280;45919;51.420;5.454;2022-08-19T03:57:35;101232.56;;;18.11;91.78
59029;BME280;45919;51.420;5.454;2022-08-19T03:58:37;101240.50;;;18.10;91.86
59029;BME280;45919;51.420;5.454;2022-08-19T03:59:40;101245.78;;;18.11;92.01
59029;BME280;45919;51.420;5.454;2022-08-19T04:00:42;101240.50;;;18.10;91.43
59029;BME280;45919;51.420;5.454;2022-08-19T04:01:44;101229.13;;;18.00;91.55
59029;BME280;45919;51.420;5.454;2022-08-19T04:02:46;101235.28;;;18.02;91.67
59029;BME280;45919;51.420;5.454;2022-08-19T04:03:48;101246.69;;;18.05;91.59
59029;BME280;45919;51.420;5.454;2022-08-19T04:04:53;101231.72;;;18.04;91.80
59029;BME280;45919;51.420;5.454;2022-08-19T04:05:56;101243.16;;;18.07;91.47
59029;BME280;45919;51.420;5.454;2022-08-19T04:06:58;101238.81;;;17.99;91.57
59029;BME280;45919;51.420;5.454;2022-08-19T04:07:59;101239.66;;;18.04;91.04
59029;BME280;45919;51.420;5.454;2022-08-19T04:09:05;101241.41;;;18.07;91.44
59029;BME280;45919;51.420;5.454;2022-08-19T04:10:08;101236.16;;;18.04;91.26
59029;BME280;45919;51.420;5.454;2022-08-19T04:11:12;101231.72;;;18.03;91.31
59029;BME280;45919;51.420;5.454;2022-08-19T04:12:14;101230.88;;;18.02;91.21
59029;BME280;45919;51.420;5.454;2022-08-19T04:13:17;101229.09;;;18.03;90.80
59029;BME280;45919;51.420;5.454;2022-08-19T04:14:20;101235.25;;;18.03;91.40
59029;BME280;45919;51.420;5.454;2022-08-19T04:15:22;101226.53;;;17.97;90.99
59029;BME280;45919;51.420;5.454;2022-08-19T04:16:26;101235.28;;;18.02;91.05
59029;BME280;45919;51.420;5.454;2022-08-19T04:17:30;101221.25;;;17.95;90.80
59029;BME280;45919;51.420;5.454;2022-08-19T04:18:33;101232.63;;;18.02;90.73
59029;BME280;45919;51.420;5.454;2022-08-19T04:19:36;101230.88;;;18.01;90.48
59029;BME280;45919;51.420;5.454;2022-08-19T04:20:46;101229.97;;;18.03;90.76
59029;BME280;45919;51.420;5.454;2022-08-19T04:21:51;101231.75;;;18.01;90.52
59029;BME280;45919;51.420;5.454;2022-08-19T04:22:53;101230.91;;;17.98;90.64
59029;BME280;45919;51.420;5.454;2022-08-19T04:23:55;101237.97;;;17.99;90.68
59029;BME280;45919;51.420;5.454;2022-08-19T04:24:58;101224.78;;;17.92;90.77
59029;BME280;45919;51.420;5.454;2022-08-19T04:25:59;101234.44;;;17.97;90.92
59029;BME280;45919;51.420;5.454;2022-08-19T04:27:02;101236.19;;;17.98;90.47
59029;BME280;45919;51.420;5.454;2022-08-19T04:28:04;101229.16;;;17.93;90.46
59029;BME280;45919;51.420;5.454;2022-08-19T04:29:10;101222.09;;;17.97;90.48
59029;BME280;45919;51.420;5.454;2022-08-19T04:30:14;101223.03;;;17.93;90.54
59029;BME280;45919;51.420;5.454;2022-08-19T04:31:18;101199.34;;;17.82;90.71
59029;BME280;45919;51.420;5.454;2022-08-19T04:32:20;101229.19;;;17.92;90.73
59029;BME280;45919;51.420;5.454;2022-08-19T04:33:24;101222.19;;;17.89;90.74
59029;BME280;45919;51.420;5.454;2022-08-19T04:34:27;101208.16;;;17.81;90.62
59029;BME280;45919;51.420;5.454;2022-08-19T04:35:38;101224.72;;;17.97;90.52
59029;BME280;45919;51.420;5.454;2022-08-19T04:36:44;101224.78;;;17.92;90.23
59029;BME280;45919;51.420;5.454;2022-08-19T04:37:46;101219.56;;;17.88;90.25
59029;BME280;45919;51.420;5.454;2022-08-19T04:38:49;101226.59;;;17.89;90.17
59029;BME280;45919;51.420;5.454;2022-08-19T04:39:51;101193.31;;;17.67;90.17
59029;BME280;45919;51.420;5.454;2022-08-19T04:41:11;101222.22;;;17.88;90.17
59029;BME280;45919;51.420;5.454;2022-08-19T04:42:31;101220.41;;;17.88;90.12
59029;BME280;45919;51.420;5.454;2022-08-19T04:43:44;101229.22;;;17.89;90.07
59029;BME280;45919;51.420;5.454;2022-08-19T04:44:50;101219.56;;;17.85;89.64
59029;BME280;45919;51.420;5.454;2022-08-19T04:45:52;101180.19;;;17.58;90.42
59029;BME280;45919;51.420;5.454;2022-08-19T04:46:53;101223.13;;;17.84;90.56
59029;BME280;45919;51.420;5.454;2022-08-19T04:47:55;101200.41;;;17.62;90.46
59029;BME280;45919;51.420;5.454;2022-08-19T04:49:00;101231.06;;;17.82;90.68
59029;BME280;45919;51.420;5.454;2022-08-19T04:50:04;101229.31;;;17.79;90.75
59029;BME280;45919;51.420;5.454;2022-08-19T04:51:08;101227.56;;;17.80;90.70
59029;BME280;45919;51.420;5.454;2022-08-19T04:52:10;101226.66;;;17.81;90.79
59029;BME280;45919;51.420;5.454;2022-08-19T04:53:11;101222.34;;;17.71;91.24
59029;BME280;45919;51.420;5.454;2022-08-19T04:54:14;101227.56;;;17.75;91.18
59029;BME280;45919;51.420;5.454;2022-08-19T04:55:16;101233.72;;;17.79;91.22
59029;BME280;45919;51.420;5.454;2022-08-19T04:56:20;101241.66;;;17.80;91.28
59029;BME280;45919;51.420;5.454;2022-08-19T04:57:24;101210.13;;;17.60;91.22
59029;BME280;45919;51.420;5.454;2022-08-19T04:58:28;101245.13;;;17.83;91.31
59029;BME280;45919;51.420;5.454;2022-08-19T04:59:30;101234.59;;;17.79;90.99
59029;BME280;45919;51.420;5.454;2022-08-19T05:00:31;101241.66;;;17.77;90.86
59029;BME280;45919;51.420;5.454;2022-08-19T05:01:33;101209.28;;;17.55;91.11
59029;BME280;45919;51.420;5.454;2022-08-19T05:02:35;101218.88;;;17.64;91.14
59029;BME280;45919;51.420;5.454;2022-08-19T05:03:36;101232.88;;;17.74;90.94
59029;BME280;45919;51.420;5.454;2022-08-19T05:04:39;101247.78;;;17.83;90.79
59029;BME280;45919;51.420;5.454;2022-08-19T05:05:41;101250.44;;;17.84;90.99
59029;BME280;45919;51.420;5.454;2022-08-19T05:06:42;101239.94;;;17.73;90.74
59029;BME280;45919;51.420;5.454;2022-08-19T05:07:44;101238.19;;;17.72;90.79
59029;BME280;45919;51.420;5.454;2022-08-19T05:08:46;101256.59;;;17.83;91.14
59029;BME280;45919;51.420;5.454;2022-08-19T05:09:48;101255.72;;;17.81;91.01
59029;BME280;45919;51.420;5.454;2022-08-19T05:10:51;101261.88;;;17.83;90.99
59029;BME280;45919;51.420;5.454;2022-08-19T05:11:53;101260.97;;;17.83;90.78
59029;BME280;45919;51.420;5.454;2022-08-19T05:12:55;101263.66;;;17.81;90.86
59029;BME280;45919;51.420;5.454;2022-08-19T05:13:57;101263.63;;;17.83;91.04
59029;BME280;45919;51.420;5.454;2022-08-19T05:14:59;101263.63;;;17.83;90.94
59029;BME280;45919;51.420;5.454;2022-08-19T05:16:01;101265.41;;;17.82;90.79
59029;BME280;45919;51.420;5.454;2022-08-19T05:17:03;101255.72;;;17.81;90.81
59029;BME280;45919;51.420;5.454;2022-08-19T05:18:24;101239.09;;;17.69;90.52
59029;BME280;45919;51.420;5.454;2022-08-19T05:19:44;101265.38;;;17.85;90.44
59029;BME280;45919;51.420;5.454;2022-08-19T05:21:07;101268.88;;;17.87;90.51
59029;BME280;45919;51.420;5.454;2022-08-19T05:22:28;101261.84;;;17.85;90.43
59029;BME280;45919;51.420;5.454;2022-08-19T05:23:39;101261.00;;;17.84;90.30
59029;BME280;45919;51.420;5.454;2022-08-19T05:24:41;101244.38;;;17.71;90.43
59029;BME280;45919;51.420;5.454;2022-08-19T05:25:51;101244.38;;;17.71;90.34
59029;BME280;45919;51.420;5.454;2022-08-19T05:26:54;101276.78;;;17.90;90.36
59029;BME280;45919;51.420;5.454;2022-08-19T05:27:57;101282.06;;;17.92;90.27
59029;BME280;45919;51.420;5.454;2022-08-19T05:28:59;101282.03;;;17.97;90.22
59029;BME280;45919;51.420;5.454;2022-08-19T05:30:01;101282.88;;;18.00;89.84
59029;BME280;45919;51.420;5.454;2022-08-19T05:31:03;101275.00;;;17.94;89.81
59029;BME280;45919;51.420;5.454;2022-08-19T05:32:05;101289.88;;;18.04;89.74